Time;durP1;ratioP1;P1;durP2;ratioP2;P2;SDS_P1;SDS_P2;PMS_P1;PMS_P2;Temp;Humidity;BMP_temperature;BMP_pressure;BME280_temperature;BME280_humidity;BME280_pressure;Samples;Min_cycle;Max_cycle;Signal;HPM_P1;HPM_P2
2023/12/15 00:01:42;;;;;;;22.90;14.10;;;;;;;;;;5060355;28;20659;-82
2023/12/15 00:04:08;;;;;;;23.27;15.05;;;;;;;;;;5059789;28;20494;-82
2023/12/15 00:06:34;;;;;;;24.60;16.00;;;;;;;;;;5059813;28;20196;-82
2023/12/15 00:09:00;;;;;;;23.52;15.55;;;;;;;;;;5059815;28;20400;-83
2023/12/15 00:11:26;;;;;;;24.30;14.60;;;;;;;;;;5060006;28;20671;-82
2023/12/15 00:13:52;;;;;;;22.10;14.47;;;;;;;;;;5060104;28;20494;-82
2023/12/15 00:16:18;;;;;;;25.30;14.50;;;;;;;;;;5059416;28;20426;-82
2023/12/15 00:18:44;;;;;;;27.77;14.70;;;;;;;;;;5059627;28;20506;-81
2023/12/15 00:21:10;;;;;;;23.57;14.07;;;;;;;;;;5059979;28;20272;-82
2023/12/15 00:23:36;;;;;;;26.80;15.37;;;;;;;;;;5059746;28;20455;-81
2023/12/15 00:26:02;;;;;;;21.33;15.38;;;;;;;;;;5059333;28;20410;-82
2023/12/15 00:28:28;;;;;;;25.23;15.00;;;;;;;;;;5059666;28;20188;-81
2023/12/15 00:30:54;;;;;;;20.87;14.40;;;;;;;;;;5059516;28;20532;-81
2023/12/15 00:33:19;;;;;;;28.33;15.97;;;;;;;;;;5059818;28;20474;-82
2023/12/15 00:35:46;;;;;;;24.90;16.13;;;;;;;;;;5059897;28;20546;-81
2023/12/15 00:38:12;;;;;;;23.52;15.90;;;;;;;;;;5058195;28;20408;-82
2023/12/15 00:40:38;;;;;;;30.17;17.52;;;;;;;;;;5059350;28;20181;-81
2023/12/15 00:43:04;;;;;;;26.67;16.40;;;;;;;;;;5060127;28;20173;-82
2023/12/15 00:45:30;;;;;;;31.50;16.20;;;;;;;;;;5059418;28;20765;-81
2023/12/15 00:47:56;;;;;;;25.83;15.80;;;;;;;;;;5059047;28;20443;-82
2023/12/15 00:50:22;;;;;;;22.13;14.45;;;;;;;;;;5058968;28;20404;-82
2023/12/15 00:52:48;;;;;;;24.73;15.45;;;;;;;;;;5058944;28;20322;-81
2023/12/15 00:55:14;;;;;;;23.40;14.40;;;;;;;;;;5058730;28;20208;-82
2023/12/15 00:57:40;;;;;;;28.75;16.90;;;;;;;;;;5058344;28;20408;-81
2023/12/15 01:00:06;;;;;;;22.87;14.60;;;;;;;;;;5058461;28;20560;-82
2023/12/15 01:02:32;;;;;;;29.50;16.75;;;;;;;;;;5058656;28;20412;-81
2023/12/15 01:04:58;;;;;;;29.93;16.33;;;;;;;;;;5058892;28;20626;-82
2023/12/15 01:07:24;;;;;;;28.10;15.60;;;;;;;;;;5058961;28;20762;-82
2023/12/15 01:09:50;;;;;;;27.00;14.18;;;;;;;;;;5058353;28;20821;-82
2023/12/15 01:12:16;;;;;;;24.60;14.60;;;;;;;;;;5058796;28;20177;-82
2023/12/15 01:14:43;;;;;;;27.67;16.30;;;;;;;;;;5057458;28;20459;-81
2023/12/15 01:17:09;;;;;;;25.80;16.42;;;;;;;;;;5057261;28;20416;-82
2023/12/15 01:19:35;;;;;;;28.77;18.17;;;;;;;;;;5058678;28;20188;-82
2023/12/15 01:22:00;;;;;;;25.95;16.98;;;;;;;;;;5058550;28;20465;-82
2023/12/15 01:24:27;;;;;;;27.73;16.77;;;;;;;;;;5057899;28;20600;-82
2023/12/15 01:26:53;;;;;;;31.23;16.90;;;;;;;;;;5058358;28;20464;-82
2023/12/15 01:29:19;;;;;;;30.77;16.60;;;;;;;;;;5058064;28;20166;-81
2023/12/15 01:31:45;;;;;;;26.02;16.63;;;;;;;;;;5058725;28;20241;-82
2023/12/15 01:34:11;;;;;;;27.70;18.40;;;;;;;;;;5058190;28;20210;-82
2023/12/15 01:36:37;;;;;;;31.45;17.05;;;;;;;;;;5057762;28;20412;-82
2023/12/15 01:39:03;;;;;;;29.90;16.63;;;;;;;;;;5057768;28;20721;-81
2023/12/15 01:41:31;;;;;;;27.17;18.00;;;;;;;;;;5058097;28;20248;-82
2023/12/15 01:43:57;;;;;;;29.38;18.27;;;;;;;;;;5056379;28;20280;-81
2023/12/15 01:46:23;;;;;;;29.30;18.70;;;;;;;;;;5057348;28;20170;-81
2023/12/15 01:48:50;;;;;;;26.45;17.98;;;;;;;;;;5056126;28;20223;-82
2023/12/15 01:51:16;;;;;;;23.95;17.17;;;;;;;;;;5056963;28;20176;-82
2023/12/15 01:53:43;;;;;;;29.00;16.80;;;;;;;;;;5057824;28;20259;-79
2023/12/15 01:56:12;;;;;;;26.75;17.38;;;;;;;;;;5057471;28;20185;-80
2023/12/15 01:58:38;;;;;;;33.20;17.45;;;;;;;;;;5057658;28;20187;-80
2023/12/15 02:01:04;;;;;;;29.77;18.88;;;;;;;;;;5056609;28;20539;-79
2023/12/15 02:03:31;;;;;;;28.35;18.98;;;;;;;;;;5056799;28;20185;-79
2023/12/15 02:05:57;;;;;;;29.05;17.83;;;;;;;;;;5057384;28;20272;-80
2023/12/15 02:08:23;;;;;;;33.92;21.05;;;;;;;;;;5056710;28;20177;-80
2023/12/15 02:10:49;;;;;;;28.83;18.50;;;;;;;;;;5057119;28;20169;-79
2023/12/15 02:13:15;;;;;;;38.47;19.33;;;;;;;;;;5057587;28;20458;-80
2023/12/15 02:15:41;;;;;;;33.67;20.50;;;;;;;;;;5057038;28;20881;-80
2023/12/15 02:18:07;;;;;;;36.20;19.83;;;;;;;;;;5057219;28;20416;-82
2023/12/15 02:20:33;;;;;;;34.43;19.93;;;;;;;;;;5056575;28;20404;-80
2023/12/15 02:22:59;;;;;;;32.45;20.08;;;;;;;;;;5057351;28;20458;-80
2023/12/15 02:25:25;;;;;;;38.53;20.77;;;;;;;;;;5056974;28;20196;-81
2023/12/15 02:27:51;;;;;;;30.85;18.27;;;;;;;;;;5056067;28;20597;-80
2023/12/15 02:30:17;;;;;;;33.97;19.27;;;;;;;;;;5056901;28;20177;-81
2023/12/15 02:32:43;;;;;;;30.13;18.40;;;;;;;;;;5057038;28;20640;-80
2023/12/15 02:35:11;;;;;;;34.60;19.77;;;;;;;;;;5057114;28;20460;-81
2023/12/15 02:37:37;;;;;;;35.38;20.25;;;;;;;;;;5057131;28;20498;-81
2023/12/15 02:40:03;;;;;;;29.77;18.05;;;;;;;;;;5057186;28;20207;-80
2023/12/15 02:42:29;;;;;;;32.22;20.10;;;;;;;;;;5056698;28;20180;-81
2023/12/15 02:44:55;;;;;;;31.27;17.83;;;;;;;;;;5056716;28;20209;-80
2023/12/15 02:47:21;;;;;;;38.53;18.77;;;;;;;;;;5056422;28;20400;-81
2023/12/15 02:49:47;;;;;;;31.02;19.13;;;;;;;;;;5056752;28;20445;-80
2023/12/15 02:52:13;;;;;;;39.97;20.27;;;;;;;;;;5056406;28;20182;-81
2023/12/15 02:54:39;;;;;;;36.63;19.20;;;;;;;;;;5056189;28;20543;-80
2023/12/15 02:57:08;;;;;;;30.47;19.53;;;;;;;;;;5056442;28;20266;-80
2023/12/15 02:59:34;;;;;;;38.33;20.35;;;;;;;;;;5057061;28;20490;-80
2023/12/15 03:02:00;;;;;;;33.45;19.45;;;;;;;;;;5056178;28;20201;-81
2023/12/15 03:04:26;;;;;;;30.88;19.75;;;;;;;;;;5056751;28;20173;-81
2023/12/15 03:06:52;;;;;;;30.95;19.65;;;;;;;;;;5057076;28;20212;-81
2023/12/15 03:09:18;;;;;;;32.80;19.67;;;;;;;;;;5056294;28;20593;-81
2023/12/15 03:11:44;;;;;;;34.67;18.95;;;;;;;;;;5055321;28;20416;-81
2023/12/15 03:14:10;;;;;;;29.95;18.75;;;;;;;;;;5056098;28;20224;-83
2023/12/15 03:16:36;;;;;;;33.20;19.43;;;;;;;;;;5056491;28;20185;-81
2023/12/15 03:19:02;;;;;;;30.70;17.83;;;;;;;;;;5056409;28;20492;-80
2023/12/15 03:21:28;;;;;;;31.02;18.35;;;;;;;;;;5056164;28;20458;-81
2023/12/15 03:23:53;;;;;;;34.27;18.37;;;;;;;;;;5056919;28;20186;-81
2023/12/15 03:26:19;;;;;;;26.13;16.77;;;;;;;;;;5056306;28;20414;-81
2023/12/15 03:28:45;;;;;;;31.63;19.77;;;;;;;;;;5056503;28;20423;-81
2023/12/15 03:31:11;;;;;;;26.33;17.03;;;;;;;;;;5056468;28;20177;-82
2023/12/15 03:33:37;;;;;;;30.08;18.45;;;;;;;;;;5056518;28;20970;-81
2023/12/15 03:36:04;;;;;;;27.85;16.92;;;;;;;;;;5056347;28;20178;-80
2023/12/15 03:38:30;;;;;;;34.67;18.85;;;;;;;;;;5056132;28;20216;-81
2023/12/15 03:40:56;;;;;;;30.38;17.80;;;;;;;;;;5056291;28;20177;-81
2023/12/15 03:43:22;;;;;;;30.75;18.50;;;;;;;;;;5056256;28;20179;-81
2023/12/15 03:45:48;;;;;;;31.52;18.73;;;;;;;;;;5056595;28;20260;-81
2023/12/15 03:48:14;;;;;;;27.48;18.30;;;;;;;;;;5055935;28;20224;-81
2023/12/15 03:50:40;;;;;;;23.53;16.23;;;;;;;;;;5055770;28;20581;-81
2023/12/15 03:53:06;;;;;;;27.27;16.85;;;;;;;;;;5055706;28;20558;-81
2023/12/15 03:55:32;;;;;;;28.30;17.83;;;;;;;;;;5056512;28;20244;-81
2023/12/15 03:57:58;;;;;;;29.53;18.30;;;;;;;;;;5056042;28;20235;-81
2023/12/15 04:00:24;;;;;;;31.63;17.37;;;;;;;;;;5055347;28;20396;-81
2023/12/15 04:02:50;;;;;;;28.07;17.53;;;;;;;;;;5055867;28;20398;-81
2023/12/15 04:05:16;;;;;;;23.65;16.13;;;;;;;;;;5056247;28;20408;-81
2023/12/15 04:07:42;;;;;;;24.63;17.52;;;;;;;;;;5056378;28;20182;-80
2023/12/15 04:10:11;;;;;;;31.08;16.98;;;;;;;;;;5054732;28;20170;-81
2023/12/15 04:12:37;;;;;;;32.67;17.33;;;;;;;;;;5055576;28;20177;-81
2023/12/15 04:15:04;;;;;;;27.38;16.10;;;;;;;;;;5059210;28;20230;-81
2023/12/15 04:17:30;;;;;;;23.38;15.23;;;;;;;;;;5058582;28;20195;-81
2023/12/15 04:19:56;;;;;;;25.83;15.87;;;;;;;;;;5059255;28;20253;-81
2023/12/15 04:22:24;;;;;;;26.90;16.10;;;;;;;;;;5059310;28;20414;-81
2023/12/15 04:24:50;;;;;;;25.48;15.27;;;;;;;;;;5060485;28;20188;-81
2023/12/15 04:27:16;;;;;;;27.30;16.93;;;;;;;;;;5058573;28;20182;-82
2023/12/15 04:29:42;;;;;;;24.23;14.83;;;;;;;;;;5058983;28;20419;-81
2023/12/15 04:32:08;;;;;;;22.90;14.20;;;;;;;;;;5058715;28;20415;-81
2023/12/15 04:34:34;;;;;;;25.77;15.80;;;;;;;;;;5058708;28;20215;-82
2023/12/15 04:37:00;;;;;;;20.42;14.43;;;;;;;;;;5058488;28;20435;-82
2023/12/15 04:39:27;;;;;;;19.15;14.70;;;;;;;;;;5057566;28;20633;-83
2023/12/15 04:41:52;;;;;;;21.88;15.85;;;;;;;;;;5058007;28;20185;-82
2023/12/15 04:44:18;;;;;;;23.20;14.70;;;;;;;;;;5057768;28;20185;-83
2023/12/15 04:46:44;;;;;;;25.03;14.87;;;;;;;;;;5058283;28;20409;-82
2023/12/15 04:49:10;;;;;;;25.43;15.23;;;;;;;;;;5058301;28;20413;-82
2023/12/15 04:51:36;;;;;;;26.77;16.87;;;;;;;;;;5057695;28;20477;-82
2023/12/15 04:54:02;;;;;;;36.23;22.30;;;;;;;;;;5057903;28;20564;-82
2023/12/15 04:56:28;;;;;;;41.95;25.25;;;;;;;;;;5057311;28;20416;-83
2023/12/15 04:58:54;;;;;;;33.13;20.93;;;;;;;;;;5057471;28;20645;-83
2023/12/15 05:01:20;;;;;;;30.47;18.07;;;;;;;;;;5057385;28;20440;-83
2023/12/15 05:03:46;;;;;;;18.77;14.60;;;;;;;;;;5057103;28;20408;-83
2023/12/15 05:06:26;;;;;;;26.63;15.43;;;;;;;;;;5057675;28;20474;-83
2023/12/15 05:08:52;;;;;;;17.58;12.85;;;;;;;;;;5057788;28;20434;-83
2023/12/15 05:11:18;;;;;;;19.75;13.60;;;;;;;;;;5057040;28;20180;-83
2023/12/15 05:13:43;;;;;;;23.77;14.23;;;;;;;;;;5057730;28;20602;-82
2023/12/15 05:16:10;;;;;;;23.70;14.57;;;;;;;;;;5057069;28;20408;-84
2023/12/15 05:18:35;;;;;;;22.80;14.23;;;;;;;;;;5057320;28;20957;-85
2023/12/15 05:21:02;;;;;;;22.93;14.03;;;;;;;;;;5057411;28;20179;-84
2023/12/15 05:23:28;;;;;;;21.88;13.45;;;;;;;;;;5056968;28;20442;-84
2023/12/15 05:25:54;;;;;;;21.00;13.67;;;;;;;;;;5056752;28;20514;-84
2023/12/15 05:28:20;;;;;;;17.30;12.70;;;;;;;;;;5056635;28;20535;-84
2023/12/15 05:30:46;;;;;;;26.58;15.23;;;;;;;;;;5057066;28;20426;-84
2023/12/15 05:33:12;;;;;;;25.07;16.03;;;;;;;;;;5056807;28;20649;-85
2023/12/15 05:35:38;;;;;;;23.92;13.60;;;;;;;;;;5056024;28;20570;-85
2023/12/15 05:38:04;;;;;;;22.07;14.37;;;;;;;;;;5056805;28;20213;-84
2023/12/15 05:40:30;;;;;;;23.65;14.90;;;;;;;;;;5055769;28;20413;-84
2023/12/15 05:42:56;;;;;;;21.60;14.30;;;;;;;;;;5056813;28;20177;-84
2023/12/15 05:45:22;;;;;;;22.37;15.60;;;;;;;;;;5055390;28;20284;-85
2023/12/15 05:47:51;;;;;;;23.63;13.90;;;;;;;;;;5056592;28;20828;-84
2023/12/15 05:50:17;;;;;;;21.52;14.07;;;;;;;;;;5055882;28;20416;-84
2023/12/15 05:52:43;;;;;;;18.07;13.00;;;;;;;;;;5055244;28;20237;-84
2023/12/15 05:55:09;;;;;;;23.33;13.40;;;;;;;;;;5056500;28;20464;-84
2023/12/15 05:57:35;;;;;;;20.90;14.13;;;;;;;;;;5056622;28;20877;-84
2023/12/15 06:00:01;;;;;;;23.47;13.83;;;;;;;;;;5056403;28;20432;-83
2023/12/15 06:02:27;;;;;;;24.60;15.50;;;;;;;;;;5056530;28;20407;-84
2023/12/15 06:04:53;;;;;;;21.03;14.83;;;;;;;;;;5056559;28;20415;-84
2023/12/15 06:07:19;;;;;;;21.48;14.20;;;;;;;;;;5056853;28;20419;-85
2023/12/15 06:09:45;;;;;;;29.98;15.73;;;;;;;;;;5038574;28;20185;-85
2023/12/15 06:12:11;;;;;;;20.42;13.65;;;;;;;;;;5056233;28;20205;-83
2023/12/15 06:14:37;;;;;;;19.07;13.70;;;;;;;;;;5056156;28;20661;-83
2023/12/15 06:17:06;;;;;;;24.87;15.83;;;;;;;;;;5056077;28;20775;-83
2023/12/15 06:19:32;;;;;;;25.20;16.02;;;;;;;;;;5055761;28;20534;-83
2023/12/15 06:21:58;;;;;;;27.20;16.75;;;;;;;;;;5055057;28;20629;-83
2023/12/15 06:24:24;;;;;;;25.20;14.97;;;;;;;;;;5055422;28;20186;-83
2023/12/15 06:26:50;;;;;;;22.10;16.03;;;;;;;;;;5056331;28;20409;-83
2023/12/15 06:29:16;;;;;;;25.98;17.90;;;;;;;;;;5055910;28;20971;-83
2023/12/15 06:31:51;;;;;;;31.30;16.47;;;;;;;;;;5055540;28;20190;-83
2023/12/15 06:34:17;;;;;;;28.05;16.02;;;;;;;;;;5055800;28;20460;-83
2023/12/15 06:36:43;;;;;;;28.15;15.98;;;;;;;;;;5054402;28;20180;-83
2023/12/15 06:39:09;;;;;;;25.50;15.70;;;;;;;;;;5055571;28;20181;-82
2023/12/15 06:41:35;;;;;;;28.93;18.13;;;;;;;;;;5055613;28;20408;-82
2023/12/15 06:44:02;;;;;;;30.47;16.43;;;;;;;;;;5056129;28;20497;-82
2023/12/15 06:46:28;;;;;;;29.55;16.83;;;;;;;;;;5055547;28;20412;-83
2023/12/15 06:48:54;;;;;;;30.93;18.50;;;;;;;;;;5054296;28;20187;-82
2023/12/15 06:51:20;;;;;;;35.95;18.70;;;;;;;;;;5055780;28;20424;-84
2023/12/15 06:53:46;;;;;;;33.63;19.38;;;;;;;;;;5053843;28;20233;-82
2023/12/15 06:56:13;;;;;;;29.35;18.45;;;;;;;;;;5055830;28;20225;-82
2023/12/15 06:58:39;;;;;;;34.67;19.37;;;;;;;;;;5055440;28;20173;-82
2023/12/15 07:01:05;;;;;;;37.27;18.07;;;;;;;;;;5055291;28;20837;-82
2023/12/15 07:03:31;;;;;;;33.83;19.42;;;;;;;;;;5055615;28;20405;-82
2023/12/15 07:05:57;;;;;;;39.33;19.27;;;;;;;;;;5055206;28;20230;-83
2023/12/15 07:08:23;;;;;;;33.30;17.80;;;;;;;;;;5055006;28;20400;-87
2023/12/15 07:10:50;;;;;;;31.33;19.15;;;;;;;;;;5055912;28;20268;-82
2023/12/15 07:13:16;;;;;;;37.00;22.58;;;;;;;;;;5055458;28;20560;-82
2023/12/15 07:15:42;;;;;;;39.70;21.23;;;;;;;;;;5055095;28;20216;-82
2023/12/15 07:18:08;;;;;;;39.27;22.40;;;;;;;;;;5055641;28;20412;-82
2023/12/15 07:20:34;;;;;;;44.70;23.90;;;;;;;;;;5055019;28;20436;-82
2023/12/15 07:23:00;;;;;;;45.70;22.97;;;;;;;;;;5055521;28;20177;-82
2023/12/15 07:25:26;;;;;;;41.87;22.80;;;;;;;;;;5054972;28;20885;-83
2023/12/15 07:27:53;;;;;;;52.63;24.70;;;;;;;;;;5055572;28;20775;-82
2023/12/15 07:30:19;;;;;;;50.72;24.05;;;;;;;;;;5055453;28;20412;-82
2023/12/15 07:32:45;;;;;;;52.42;24.70;;;;;;;;;;5054891;28;20181;-82
2023/12/15 07:35:11;;;;;;;50.00;26.40;;;;;;;;;;5054751;28;20221;-82
2023/12/15 07:37:37;;;;;;;53.92;26.58;;;;;;;;;;5055260;28;20413;-82
2023/12/15 07:40:03;;;;;;;58.35;27.38;;;;;;;;;;5055102;28;20173;-82
2023/12/15 07:42:30;;;;;;;56.95;27.83;;;;;;;;;;5054933;28;20289;-83
2023/12/15 07:44:56;;;;;;;63.47;30.10;;;;;;;;;;5055983;28;20177;-83
2023/12/15 07:47:22;;;;;;;49.70;28.17;;;;;;;;;;5056175;28;20546;-83
2023/12/15 07:49:48;;;;;;;65.57;29.75;;;;;;;;;;5058631;28;20918;-83
2023/12/15 07:52:14;;;;;;;57.40;30.00;;;;;;;;;;5057920;28;20263;-82
2023/12/15 07:54:41;;;;;;;55.85;27.50;;;;;;;;;;5058869;28;20476;-81
2023/12/15 07:57:07;;;;;;;50.28;24.55;;;;;;;;;;5058795;28;20178;-81
2023/12/15 07:59:36;;;;;;;53.63;26.50;;;;;;;;;;5058442;28;20189;-82
2023/12/15 08:02:03;;;;;;;55.42;28.13;;;;;;;;;;5058821;28;20407;-81
2023/12/15 08:04:30;;;;;;;49.45;26.83;;;;;;;;;;5057923;28;20564;-84
2023/12/15 08:06:56;;;;;;;56.70;27.85;;;;;;;;;;5058912;28;20662;-82
2023/12/15 08:09:22;;;;;;;56.53;26.10;;;;;;;;;;5057579;28;20221;-82
2023/12/15 08:11:48;;;;;;;50.53;26.27;;;;;;;;;;5058048;28;20268;-82
2023/12/15 08:14:14;;;;;;;56.90;27.17;;;;;;;;;;5058399;28;20460;-82
2023/12/15 08:16:40;;;;;;;53.72;25.23;;;;;;;;;;5058291;28;20777;-82
2023/12/15 08:19:08;;;;;;;55.20;26.80;;;;;;;;;;5058869;28;20179;-82
2023/12/15 08:21:34;;;;;;;51.38;25.55;;;;;;;;;;5058230;28;20450;-83
2023/12/15 08:24:00;;;;;;;55.40;25.70;;;;;;;;;;5058272;28;20174;-82
2023/12/15 08:26:27;;;;;;;59.40;25.43;;;;;;;;;;5058474;28;20451;-82
2023/12/15 08:28:53;;;;;;;59.78;26.35;;;;;;;;;;5057736;28;20948;-82
2023/12/15 08:31:20;;;;;;;53.47;25.73;;;;;;;;;;5057942;28;20169;-83
2023/12/15 08:33:46;;;;;;;56.83;26.20;;;;;;;;;;5057923;28;20264;-82
2023/12/15 08:36:12;;;;;;;59.50;27.03;;;;;;;;;;5058383;28;20259;-82
2023/12/15 08:38:38;;;;;;;55.63;27.42;;;;;;;;;;5057973;28;20413;-83
2023/12/15 08:41:04;;;;;;;52.67;26.50;;;;;;;;;;5058191;28;20567;-82
2023/12/15 08:43:30;;;;;;;61.45;26.75;;;;;;;;;;5057953;28;20420;-86
2023/12/15 08:45:56;;;;;;;60.58;28.33;;;;;;;;;;5057902;28;20186;-82
2023/12/15 08:48:22;;;;;;;58.10;27.50;;;;;;;;;;5057809;28;20185;-82
2023/12/15 08:50:49;;;;;;;54.13;26.40;;;;;;;;;;5060776;28;20176;-81
2023/12/15 08:53:16;;;;;;;61.15;28.95;;;;;;;;;;5059340;28;20491;-81
2023/12/15 08:55:42;;;;;;;62.72;28.90;;;;;;;;;;5057227;28;20625;-82
2023/12/15 08:58:09;;;;;;;63.97;30.17;;;;;;;;;;5058048;28;20192;-82
2023/12/15 09:00:35;;;;;;;69.70;30.77;;;;;;;;;;5056315;28;20171;-83
2023/12/15 09:03:01;;;;;;;68.32;29.77;;;;;;;;;;5058025;28;20192;-82
2023/12/15 09:05:27;;;;;;;64.00;30.13;;;;;;;;;;5057414;28;20189;-82
2023/12/15 09:07:54;;;;;;;64.00;30.90;;;;;;;;;;5057744;28;20263;-82
2023/12/15 09:10:20;;;;;;;57.88;28.10;;;;;;;;;;5057560;28;20754;-82
2023/12/15 09:12:46;;;;;;;71.75;32.20;;;;;;;;;;5057203;28;20636;-82
2023/12/15 09:15:13;;;;;;;57.45;27.80;;;;;;;;;;5056894;28;20300;-82
2023/12/15 09:17:42;;;;;;;74.00;32.08;;;;;;;;;;5057049;28;20183;-83
2023/12/15 09:20:08;;;;;;;65.20;29.10;;;;;;;;;;5057206;28;20188;-82
2023/12/15 09:22:34;;;;;;;58.50;28.42;;;;;;;;;;5056900;28;20202;-83
2023/12/15 09:25:00;;;;;;;64.80;29.93;;;;;;;;;;5056718;28;20192;-82
2023/12/15 09:27:26;;;;;;;65.57;29.23;;;;;;;;;;5056900;28;20418;-82
2023/12/15 09:29:52;;;;;;;74.47;31.23;;;;;;;;;;5055420;28;20418;-82
2023/12/15 09:32:18;;;;;;;62.17;30.50;;;;;;;;;;5056635;28;20443;-82
2023/12/15 09:34:44;;;;;;;60.33;30.73;;;;;;;;;;5060596;28;20527;-83
2023/12/15 09:37:10;;;;;;;64.93;32.07;;;;;;;;;;5056657;28;20408;-82
2023/12/15 09:39:36;;;;;;;59.88;29.00;;;;;;;;;;5056647;28;20784;-83
2023/12/15 09:42:02;;;;;;;65.65;26.65;;;;;;;;;;5056950;28;20176;-82
2023/12/15 09:44:28;;;;;;;68.18;30.17;;;;;;;;;;5056502;28;20191;-82
2023/12/15 09:46:57;;;;;;;61.50;27.77;;;;;;;;;;5056596;28;20262;-82
2023/12/15 09:49:24;;;;;;;52.78;26.50;;;;;;;;;;5056739;28;20478;-82
2023/12/15 09:51:50;;;;;;;56.08;26.92;;;;;;;;;;5056222;28;20225;-82
2023/12/15 09:54:17;;;;;;;59.72;26.75;;;;;;;;;;5056589;28;20638;-82
2023/12/15 09:56:43;;;;;;;51.67;24.50;;;;;;;;;;5056827;28;20622;-81
2023/12/15 09:59:09;;;;;;;55.08;26.67;;;;;;;;;;5056763;28;20192;-82
2023/12/15 10:01:35;;;;;;;58.28;27.00;;;;;;;;;;5056473;28;20186;-83
2023/12/15 10:04:01;;;;;;;47.50;25.47;;;;;;;;;;5056884;28;20177;-81
2023/12/15 10:06:27;;;;;;;58.85;25.60;;;;;;;;;;5056674;28;20407;-81
2023/12/15 10:08:53;;;;;;;55.47;26.17;;;;;;;;;;5056634;28;20184;-81
2023/12/15 10:11:19;;;;;;;47.25;24.85;;;;;;;;;;5055394;28;20408;-83
2023/12/15 10:13:45;;;;;;;55.38;25.05;;;;;;;;;;5056390;28;20181;-84
2023/12/15 10:16:11;;;;;;;57.25;26.55;;;;;;;;;;5055208;28;20286;-83
2023/12/15 10:18:38;;;;;;;54.72;24.90;;;;;;;;;;5055187;28;20177;-84
2023/12/15 10:21:04;;;;;;;47.58;25.98;;;;;;;;;;5055493;28;20199;-84
2023/12/15 10:23:31;;;;;;;51.95;28.67;;;;;;;;;;5061543;28;20178;-83
2023/12/15 10:26:01;;;;;;;51.80;24.83;;;;;;;;;;5054561;28;20217;-81
2023/12/15 10:28:37;;;;;;;47.83;23.55;;;;;;;;;;5052391;28;20192;-81
2023/12/15 10:31:03;;;;;;;46.72;23.65;;;;;;;;;;5052403;28;20549;-82
2023/12/15 10:33:30;;;;;;;51.60;23.88;;;;;;;;;;5055285;28;20178;-82
2023/12/15 10:35:57;;;;;;;51.53;24.63;;;;;;;;;;5053667;28;20715;-83
2023/12/15 10:38:23;;;;;;;46.47;24.25;;;;;;;;;;5054900;28;20181;-82
2023/12/15 10:40:49;;;;;;;49.70;24.38;;;;;;;;;;5053711;28;20180;-82
2023/12/15 10:43:16;;;;;;;52.35;23.65;;;;;;;;;;5054694;28;20174;-81
2023/12/15 10:45:42;;;;;;;47.78;23.75;;;;;;;;;;5055174;28;20188;-82
2023/12/15 10:48:08;;;;;;;45.53;24.13;;;;;;;;;;5055018;28;20625;-81
2023/12/15 10:50:35;;;;;;;55.00;24.23;;;;;;;;;;5054362;28;20400;-83
2023/12/15 10:53:01;;;;;;;45.03;22.88;;;;;;;;;;5054911;28;20260;-81
2023/12/15 10:55:28;;;;;;;46.75;21.65;;;;;;;;;;5054999;28;20279;-81
2023/12/15 10:57:58;;;;;;;47.13;22.33;;;;;;;;;;5055556;28;20638;-80
2023/12/15 11:00:24;;;;;;;43.50;21.45;;;;;;;;;;5053864;28;20696;-81
2023/12/15 11:02:50;;;;;;;45.95;22.73;;;;;;;;;;5055659;28;20178;-81
2023/12/15 11:05:16;;;;;;;40.70;23.30;;;;;;;;;;5055034;28;20193;-81
2023/12/15 11:07:42;;;;;;;36.50;19.90;;;;;;;;;;5055011;28;20177;-82
2023/12/15 11:10:09;;;;;;;43.78;22.23;;;;;;;;;;5055631;28;20182;-81
2023/12/15 11:12:45;;;;;;;44.22;22.08;;;;;;;;;;5055118;28;20174;-81
2023/12/15 11:15:12;;;;;;;38.63;21.23;;;;;;;;;;5055169;28;20208;-80
2023/12/15 11:17:43;;;;;;;45.45;23.20;;;;;;;;;;5054796;28;20292;-81
2023/12/15 11:20:11;;;;;;;37.70;21.73;;;;;;;;;;5055342;28;20581;-81
2023/12/15 11:22:41;;;;;;;41.35;20.98;;;;;;;;;;5056755;28;20183;-81
2023/12/15 11:25:08;;;;;;;53.83;25.35;;;;;;;;;;5058753;28;20272;-81
2023/12/15 11:27:54;;;;;;;44.92;22.55;;;;;;;;;;5059019;28;20162;-80
2023/12/15 11:30:42;;;;;;;49.65;22.08;;;;;;;;;;5059339;28;20175;-80
2023/12/15 11:33:26;;;;;;;41.97;21.35;;;;;;;;;;5059542;28;20173;-80
2023/12/15 11:36:15;;;;;;;39.47;21.15;;;;;;;;;;5058686;28;20296;-81
2023/12/15 11:38:41;;;;;;;38.75;19.95;;;;;;;;;;5059753;28;20545;-82
2023/12/15 11:41:07;;;;;;;44.78;19.80;;;;;;;;;;5059661;28;20182;-81
2023/12/15 11:43:36;;;;;;;40.55;21.52;;;;;;;;;;5059112;28;20207;-81
2023/12/15 11:46:05;;;;;;;45.10;22.40;;;;;;;;;;5059332;28;20567;-81
2023/12/15 11:48:33;;;;;;;40.33;21.05;;;;;;;;;;5058674;28;20239;-81
2023/12/15 11:51:00;;;;;;;35.20;19.75;;;;;;;;;;5058632;28;20192;-81
2023/12/15 11:53:26;;;;;;;38.85;21.15;;;;;;;;;;5059119;28;20257;-81
2023/12/15 11:55:52;;;;;;;37.38;21.17;;;;;;;;;;5058360;28;20212;-81
2023/12/15 11:58:18;;;;;;;46.08;20.70;;;;;;;;;;5058996;28;20184;-81
2023/12/15 12:00:45;;;;;;;45.60;22.88;;;;;;;;;;5058372;28;20185;-81
2023/12/15 12:03:13;;;;;;;37.63;21.38;;;;;;;;;;5058814;28;20268;-81
2023/12/15 12:05:40;;;;;;;46.63;21.88;;;;;;;;;;5058883;28;20195;-80
2023/12/15 12:08:07;;;;;;;29.45;19.45;;;;;;;;;;5058023;28;20192;-81
2023/12/15 12:10:35;;;;;;;35.35;20.00;;;;;;;;;;5058372;28;20256;-80
2023/12/15 12:13:01;;;;;;;41.58;20.85;;;;;;;;;;5058437;28;20185;-80
2023/12/15 12:15:27;;;;;;;39.97;20.77;;;;;;;;;;5058948;28;20556;-80
2023/12/15 12:17:53;;;;;;;49.30;22.05;;;;;;;;;;5058694;28;20181;-80
2023/12/15 12:20:20;;;;;;;41.95;21.42;;;;;;;;;;5058027;28;20520;-84
2023/12/15 12:22:46;;;;;;;43.92;20.70;;;;;;;;;;5057303;28;20193;-81
2023/12/15 12:25:15;;;;;;;40.20;18.67;;;;;;;;;;5058538;28;20181;-80
2023/12/15 12:27:41;;;;;;;36.05;20.10;;;;;;;;;;5058104;28;20177;-81
2023/12/15 12:30:11;;;;;;;38.55;22.05;;;;;;;;;;5058601;28;20181;-79
2023/12/15 12:32:37;;;;;;;43.03;20.48;;;;;;;;;;5058727;28;20648;-80
2023/12/15 12:35:04;;;;;;;33.80;19.45;;;;;;;;;;5056863;28;20227;-80
2023/12/15 12:37:31;;;;;;;31.85;18.55;;;;;;;;;;5058738;28;20188;-80
2023/12/15 12:39:57;;;;;;;36.13;19.67;;;;;;;;;;5057997;28;20204;-80
2023/12/15 12:42:23;;;;;;;36.08;19.40;;;;;;;;;;5058657;28;20256;-79
2023/12/15 12:44:52;;;;;;;37.80;19.25;;;;;;;;;;5058062;28;20235;-80
2023/12/15 12:47:18;;;;;;;45.13;19.48;;;;;;;;;;5058198;28;20177;-80
2023/12/15 12:49:45;;;;;;;30.60;18.80;;;;;;;;;;5057493;28;20215;-83
2023/12/15 12:52:11;;;;;;;31.23;18.25;;;;;;;;;;5057945;28;20186;-80
2023/12/15 12:54:37;;;;;;;46.55;19.52;;;;;;;;;;5058524;28;20302;-80
2023/12/15 12:57:03;;;;;;;35.92;19.45;;;;;;;;;;5058164;28;20208;-80
2023/12/15 12:59:32;;;;;;;30.10;17.13;;;;;;;;;;5057867;28;20173;-79
2023/12/15 13:01:58;;;;;;;31.67;18.25;;;;;;;;;;5057815;28;20178;-79
2023/12/15 13:04:25;;;;;;;33.13;18.50;;;;;;;;;;5058047;28;20186;-80
2023/12/15 13:06:52;;;;;;;42.08;19.00;;;;;;;;;;5057590;28;20165;-80
2023/12/15 13:09:18;;;;;;;37.08;17.58;;;;;;;;;;5058148;28;20192;-79
2023/12/15 13:11:48;;;;;;;35.05;20.08;;;;;;;;;;5057575;28;20578;-80
2023/12/15 13:14:14;;;;;;;34.03;18.38;;;;;;;;;;5057765;28;20645;-80
2023/12/15 13:16:40;;;;;;;33.92;17.90;;;;;;;;;;5069943;28;20173;-79
2023/12/15 13:22:09;;;;;;;35.28;19.42;;;;;;;;;;5077182;28;20579;-79
2023/12/15 13:24:35;;;;;;;43.25;19.20;;;;;;;;;;5077672;28;20177;-79
2023/12/15 13:27:02;;;;;;;31.85;18.05;;;;;;;;;;5076188;28;20683;-80
2023/12/15 13:29:28;;;;;;;32.17;18.38;;;;;;;;;;5077395;28;20191;-80
2023/12/15 13:31:54;;;;;;;40.13;18.80;;;;;;;;;;5077758;28;20248;-79
2023/12/15 13:34:20;;;;;;;31.95;18.25;;;;;;;;;;5067815;28;20213;-80
2023/12/15 13:36:46;;;;;;;31.00;17.38;;;;;;;;;;5057007;28;20181;-88
2023/12/15 13:39:12;;;;;;;33.53;16.83;;;;;;;;;;5057436;28;20656;-79
2023/12/15 13:41:39;;;;;;;32.55;17.98;;;;;;;;;;5057555;28;20439;-79
2023/12/15 13:44:05;;;;;;;30.27;17.23;;;;;;;;;;5056663;28;20173;-79
2023/12/15 13:46:31;;;;;;;35.23;18.67;;;;;;;;;;5056935;28;20674;-79
2023/12/15 13:48:57;;;;;;;32.30;17.53;;;;;;;;;;5056420;28;20405;-80
2023/12/15 13:51:23;;;;;;;34.47;16.83;;;;;;;;;;5056699;28;20411;-80
2023/12/15 13:53:49;;;;;;;35.60;17.50;;;;;;;;;;5053899;28;20478;-81
2023/12/15 13:56:16;;;;;;;34.05;17.58;;;;;;;;;;5056604;28;20566;-79
2023/12/15 13:58:42;;;;;;;29.05;15.95;;;;;;;;;;5056471;28;20209;-79
2023/12/15 14:01:08;;;;;;;27.27;17.90;;;;;;;;;;5056503;28;20192;-79
2023/12/15 14:03:34;;;;;;;35.38;18.13;;;;;;;;;;5056853;28;20574;-79
2023/12/15 14:06:01;;;;;;;31.47;18.23;;;;;;;;;;5057015;28;20203;-80
2023/12/15 14:08:27;;;;;;;28.90;15.93;;;;;;;;;;5056581;28;20462;-79
2023/12/15 14:10:54;;;;;;;33.05;17.20;;;;;;;;;;5056129;28;20185;-80
2023/12/15 14:13:19;;;;;;;30.13;16.70;;;;;;;;;;5056729;28;20184;-79
2023/12/15 14:15:46;;;;;;;36.23;15.87;;;;;;;;;;5056666;28;20981;-79